sensor_id;sensor_type;location;lat;lon;timestamp;temperature;humidity
9984;DHT22;16737;50.932;6.780;2023-08-24T00:01:43;23.10;70.50
9984;DHT22;16737;50.932;6.780;2023-08-24T00:04:10;23.10;70.70
9984;DHT22;16737;50.932;6.780;2023-08-24T00:06:38;23.10;70.80
9984;DHT22;16737;50.932;6.780;2023-08-24T00:09:05;23.10;71.20
9984;DHT22;16737;50.932;6.780;2023-08-24T00:11:32;23.10;71.00
9984;DHT22;16737;50.932;6.780;2023-08-24T00:13:59;23.00;71.20
9984;DHT22;16737;50.932;6.780;2023-08-24T00:16:28;23.00;71.30
9984;DHT22;16737;50.932;6.780;2023-08-24T00:18:55;23.00;71.50
9984;DHT22;16737;50.932;6.780;2023-08-24T00:21:25;23.00;71.70
9984;DHT22;16737;50.932;6.780;2023-08-24T00:23:56;23.00;72.60
9984;DHT22;16737;50.932;6.780;2023-08-24T00:26:23;22.90;72.30
9984;DHT22;16737;50.932;6.780;2023-08-24T00:28:50;22.90;72.30
9984;DHT22;16737;50.932;6.780;2023-08-24T00:31:17;22.90;72.30
9984;DHT22;16737;50.932;6.780;2023-08-24T00:33:44;22.90;72.50
9984;DHT22;16737;50.932;6.780;2023-08-24T00:36:11;22.80;72.50
9984;DHT22;16737;50.932;6.780;2023-08-24T00:38:38;22.80;72.50
9984;DHT22;16737;50.932;6.780;2023-08-24T00:41:06;22.80;72.70
9984;DHT22;16737;50.932;6.780;2023-08-24T00:43:33;22.80;73.10
9984;DHT22;16737;50.932;6.780;2023-08-24T00:46:02;22.80;72.90
9984;DHT22;16737;50.932;6.780;2023-08-24T00:48:31;22.70;73.10
9984;DHT22;16737;50.932;6.780;2023-08-24T00:51:00;22.70;73.10
9984;DHT22;16737;50.932;6.780;2023-08-24T00:53:29;22.70;73.50
9984;DHT22;16737;50.932;6.780;2023-08-24T00:55:56;22.70;73.60
9984;DHT22;16737;50.932;6.780;2023-08-24T00:58:26;22.70;73.70
9984;DHT22;16737;50.932;6.780;2023-08-24T01:00:54;22.60;73.90
9984;DHT22;16737;50.932;6.780;2023-08-24T01:03:23;22.60;74.30
9984;DHT22;16737;50.932;6.780;2023-08-24T01:05:51;22.60;73.70
9984;DHT22;16737;50.932;6.780;2023-08-24T01:08:18;22.50;74.00
9984;DHT22;16737;50.932;6.780;2023-08-24T01:10:59;22.50;74.40
9984;DHT22;16737;50.932;6.780;2023-08-24T01:13:41;22.50;75.70
9984;DHT22;16737;50.932;6.780;2023-08-24T01:16:16;22.50;75.20
9984;DHT22;16737;50.932;6.780;2023-08-24T01:18:47;22.40;75.10
9984;DHT22;16737;50.932;6.780;2023-08-24T01:21:15;22.40;75.00
9984;DHT22;16737;50.932;6.780;2023-08-24T01:23:46;22.40;75.10
9984;DHT22;16737;50.932;6.780;2023-08-24T01:26:22;22.30;75.50
9984;DHT22;16737;50.932;6.780;2023-08-24T01:28:49;22.30;75.60
9984;DHT22;16737;50.932;6.780;2023-08-24T01:31:17;22.30;75.50
9984;DHT22;16737;50.932;6.780;2023-08-24T01:33:44;22.30;75.60
9984;DHT22;16737;50.932;6.780;2023-08-24T01:36:14;22.20;75.90
9984;DHT22;16737;50.932;6.780;2023-08-24T01:38:42;22.20;76.50
9984;DHT22;16737;50.932;6.780;2023-08-24T01:41:11;22.20;76.50
9984;DHT22;16737;50.932;6.780;2023-08-24T01:43:46;22.20;76.60
9984;DHT22;16737;50.932;6.780;2023-08-24T01:46:20;22.10;77.20
9984;DHT22;16737;50.932;6.780;2023-08-24T01:48:48;22.10;77.10
9984;DHT22;16737;50.932;6.780;2023-08-24T01:51:16;22.10;77.00
9984;DHT22;16737;50.932;6.780;2023-08-24T01:53:44;22.00;77.00
9984;DHT22;16737;50.932;6.780;2023-08-24T01:56:13;22.00;77.30
9984;DHT22;16737;50.932;6.780;2023-08-24T01:58:43;22.00;77.20
9984;DHT22;16737;50.932;6.780;2023-08-24T02:01:09;22.00;77.90
9984;DHT22;16737;50.932;6.780;2023-08-24T02:03:38;22.00;78.10
9984;DHT22;16737;50.932;6.780;2023-08-24T02:06:05;21.90;78.00
9984;DHT22;16737;50.932;6.780;2023-08-24T02:08:33;21.90;78.10
9984;DHT22;16737;50.932;6.780;2023-08-24T02:11:00;21.90;78.40
9984;DHT22;16737;50.932;6.780;2023-08-24T02:13:27;21.80;78.50
9984;DHT22;16737;50.932;6.780;2023-08-24T02:16:02;21.80;78.50
9984;DHT22;16737;50.932;6.780;2023-08-24T02:18:30;21.80;79.70
9984;DHT22;16737;50.932;6.780;2023-08-24T02:20:57;21.80;78.80
9984;DHT22;16737;50.932;6.780;2023-08-24T02:23:24;21.80;79.10
9984;DHT22;16737;50.932;6.780;2023-08-24T02:25:50;21.80;79.40
9984;DHT22;16737;50.932;6.780;2023-08-24T02:28:17;21.80;79.50
9984;DHT22;16737;50.932;6.780;2023-08-24T02:30:44;21.80;79.70
9984;DHT22;16737;50.932;6.780;2023-08-24T02:33:13;21.70;79.70
9984;DHT22;16737;50.932;6.780;2023-08-24T02:35:40;21.70;80.10
9984;DHT22;16737;50.932;6.780;2023-08-24T02:38:09;21.70;80.00
9984;DHT22;16737;50.932;6.780;2023-08-24T02:40:36;21.70;80.10
9984;DHT22;16737;50.932;6.780;2023-08-24T02:43:03;21.70;80.10
9984;DHT22;16737;50.932;6.780;2023-08-24T02:45:30;21.70;80.40
9984;DHT22;16737;50.932;6.780;2023-08-24T02:47:57;21.70;80.60
9984;DHT22;16737;50.932;6.780;2023-08-24T02:50:25;21.70;80.70
9984;DHT22;16737;50.932;6.780;2023-08-24T02:52:52;21.70;81.10
9984;DHT22;16737;50.932;6.780;2023-08-24T02:55:19;21.70;81.10
9984;DHT22;16737;50.932;6.780;2023-08-24T02:57:45;21.70;81.20
9984;DHT22;16737;50.932;6.780;2023-08-24T03:00:12;21.70;81.30
9984;DHT22;16737;50.932;6.780;2023-08-24T03:02:43;21.70;81.50
9984;DHT22;16737;50.932;6.780;2023-08-24T03:05:10;21.70;82.10
9984;DHT22;16737;50.932;6.780;2023-08-24T03:07:41;21.70;81.70
9984;DHT22;16737;50.932;6.780;2023-08-24T03:10:11;21.70;82.10
9984;DHT22;16737;50.932;6.780;2023-08-24T03:12:38;21.70;82.00
9984;DHT22;16737;50.932;6.780;2023-08-24T03:15:05;21.70;82.30
9984;DHT22;16737;50.932;6.780;2023-08-24T03:17:33;21.70;82.50
9984;DHT22;16737;50.932;6.780;2023-08-24T03:20:00;21.80;82.70
9984;DHT22;16737;50.932;6.780;2023-08-24T03:22:28;21.80;82.70
9984;DHT22;16737;50.932;6.780;2023-08-24T03:24:56;21.80;82.80
9984;DHT22;16737;50.932;6.780;2023-08-24T03:27:23;21.80;83.00
9984;DHT22;16737;50.932;6.780;2023-08-24T03:29:53;21.80;83.00
9984;DHT22;16737;50.932;6.780;2023-08-24T03:32:19;21.80;83.50
9984;DHT22;16737;50.932;6.780;2023-08-24T03:34:46;21.80;83.30
9984;DHT22;16737;50.932;6.780;2023-08-24T03:37:13;21.80;83.50
9984;DHT22;16737;50.932;6.780;2023-08-24T03:39:40;21.80;83.80
9984;DHT22;16737;50.932;6.780;2023-08-24T03:42:09;21.90;84.10
9984;DHT22;16737;50.932;6.780;2023-08-24T03:44:35;21.90;84.50
9984;DHT22;16737;50.932;6.780;2023-08-24T03:47:03;21.90;84.30
9984;DHT22;16737;50.932;6.780;2023-08-24T03:49:30;21.90;84.40
9984;DHT22;16737;50.932;6.780;2023-08-24T03:51:57;21.90;84.50
9984;DHT22;16737;50.932;6.780;2023-08-24T03:54:24;21.90;84.60
9984;DHT22;16737;50.932;6.780;2023-08-24T03:56:51;22.00;84.90
9984;DHT22;16737;50.932;6.780;2023-08-24T03:59:19;22.00;85.10
9984;DHT22;16737;50.932;6.780;2023-08-24T04:01:46;22.00;85.50
9984;DHT22;16737;50.932;6.780;2023-08-24T04:04:13;22.00;85.20
9984;DHT22;16737;50.932;6.780;2023-08-24T04:06:40;22.00;85.30
9984;DHT22;16737;50.932;6.780;2023-08-24T04:09:07;22.00;85.50
9984;DHT22;16737;50.932;6.780;2023-08-24T04:11:34;22.00;85.60
9984;DHT22;16737;50.932;6.780;2023-08-24T04:14:01;22.00;85.80
9984;DHT22;16737;50.932;6.780;2023-08-24T04:16:30;22.00;85.90
9984;DHT22;16737;50.932;6.780;2023-08-24T04:18:57;22.00;86.20
9984;DHT22;16737;50.932;6.780;2023-08-24T04:21:24;22.00;86.10
9984;DHT22;16737;50.932;6.780;2023-08-24T04:23:51;22.00;87.10
9984;DHT22;16737;50.932;6.780;2023-08-24T04:26:17;22.00;86.60
9984;DHT22;16737;50.932;6.780;2023-08-24T04:28:44;22.00;86.70
9984;DHT22;16737;50.932;6.780;2023-08-24T04:31:11;21.90;86.80
9984;DHT22;16737;50.932;6.780;2023-08-24T04:33:39;21.90;86.90
9984;DHT22;16737;50.932;6.780;2023-08-24T04:36:07;21.90;87.40
9984;DHT22;16737;50.932;6.780;2023-08-24T04:38:34;21.90;87.50
9984;DHT22;16737;50.932;6.780;2023-08-24T04:41:02;21.90;87.80
9984;DHT22;16737;50.932;6.780;2023-08-24T04:43:32;21.90;88.20
9984;DHT22;16737;50.932;6.780;2023-08-24T04:46:00;21.80;88.40
9984;DHT22;16737;50.932;6.780;2023-08-24T04:48:26;21.80;88.90
9984;DHT22;16737;50.932;6.780;2023-08-24T04:50:59;21.80;89.20
9984;DHT22;16737;50.932;6.780;2023-08-24T04:53:26;21.70;89.60
9984;DHT22;16737;50.932;6.780;2023-08-24T04:55:53;21.70;89.50
9984;DHT22;16737;50.932;6.780;2023-08-24T04:58:20;21.60;89.80
9984;DHT22;16737;50.932;6.780;2023-08-24T05:00:49;21.60;90.00
9984;DHT22;16737;50.932;6.780;2023-08-24T05:03:25;21.60;90.30
9984;DHT22;16737;50.932;6.780;2023-08-24T05:05:52;21.60;90.90
9984;DHT22;16737;50.932;6.780;2023-08-24T05:08:20;21.50;90.20
9984;DHT22;16737;50.932;6.780;2023-08-24T05:10:47;21.40;90.50
9984;DHT22;16737;50.932;6.780;2023-08-24T05:13:14;21.50;90.60
9984;DHT22;16737;50.932;6.780;2023-08-24T05:15:41;21.40;90.80
9984;DHT22;16737;50.932;6.780;2023-08-24T05:18:08;21.40;91.00
9984;DHT22;16737;50.932;6.780;2023-08-24T05:20:35;21.40;91.20
9984;DHT22;16737;50.932;6.780;2023-08-24T05:23:02;21.30;91.30
9984;DHT22;16737;50.932;6.780;2023-08-24T05:25:31;21.30;91.50
9984;DHT22;16737;50.932;6.780;2023-08-24T05:27:59;21.30;91.70
9984;DHT22;16737;50.932;6.780;2023-08-24T05:30:26;21.30;91.70
9984;DHT22;16737;50.932;6.780;2023-08-24T05:32:54;21.20;91.80
9984;DHT22;16737;50.932;6.780;2023-08-24T05:35:21;21.20;91.90
9984;DHT22;16737;50.932;6.780;2023-08-24T05:37:49;21.20;92.00
9984;DHT22;16737;50.932;6.780;2023-08-24T05:40:16;21.20;92.10
9984;DHT22;16737;50.932;6.780;2023-08-24T05:42:44;21.20;92.20
9984;DHT22;16737;50.932;6.780;2023-08-24T05:45:11;21.20;92.40
9984;DHT22;16737;50.932;6.780;2023-08-24T05:47:38;21.30;92.30
9984;DHT22;16737;50.932;6.780;2023-08-24T05:50:06;21.30;92.30
9984;DHT22;16737;50.932;6.780;2023-08-24T05:52:33;21.30;92.40
9984;DHT22;16737;50.932;6.780;2023-08-24T05:55:00;21.30;92.40
9984;DHT22;16737;50.932;6.780;2023-08-24T05:57:27;21.30;92.50
9984;DHT22;16737;50.932;6.780;2023-08-24T05:59:56;21.30;92.60
9984;DHT22;16737;50.932;6.780;2023-08-24T06:02:23;21.40;92.80
9984;DHT22;16737;50.932;6.780;2023-08-24T06:04:50;21.40;92.70
9984;DHT22;16737;50.932;6.780;2023-08-24T06:07:17;21.40;92.90
9984;DHT22;16737;50.932;6.780;2023-08-24T06:09:47;21.40;92.90
9984;DHT22;16737;50.932;6.780;2023-08-24T06:12:13;21.40;92.90
9984;DHT22;16737;50.932;6.780;2023-08-24T06:14:40;21.40;93.00
9984;DHT22;16737;50.932;6.780;2023-08-24T06:17:09;21.40;93.10
9984;DHT22;16737;50.932;6.780;2023-08-24T06:19:35;21.40;93.30
9984;DHT22;16737;50.932;6.780;2023-08-24T06:22:04;21.50;93.30
9984;DHT22;16737;50.932;6.780;2023-08-24T06:24:31;21.50;93.40
9984;DHT22;16737;50.932;6.780;2023-08-24T06:26:58;21.50;93.60
9984;DHT22;16737;50.932;6.780;2023-08-24T06:29:26;21.50;93.70
9984;DHT22;16737;50.932;6.780;2023-08-24T06:31:54;21.60;93.80
9984;DHT22;16737;50.932;6.780;2023-08-24T06:34:22;21.60;94.00
9984;DHT22;16737;50.932;6.780;2023-08-24T06:36:50;21.60;94.20
9984;DHT22;16737;50.932;6.780;2023-08-24T06:39:20;21.60;94.40
9984;DHT22;16737;50.932;6.780;2023-08-24T06:41:47;21.70;94.40
9984;DHT22;16737;50.932;6.780;2023-08-24T06:44:13;21.70;94.50
9984;DHT22;16737;50.932;6.780;2023-08-24T06:46:40;21.80;94.70
9984;DHT22;16737;50.932;6.780;2023-08-24T06:49:08;21.80;94.80
9984;DHT22;16737;50.932;6.780;2023-08-24T06:51:36;21.90;94.90
9984;DHT22;16737;50.932;6.780;2023-08-24T06:54:03;21.90;95.00
9984;DHT22;16737;50.932;6.780;2023-08-24T06:56:30;22.00;95.00
9984;DHT22;16737;50.932;6.780;2023-08-24T06:58:57;22.10;95.00
9984;DHT22;16737;50.932;6.780;2023-08-24T07:01:24;22.10;95.00
9984;DHT22;16737;50.932;6.780;2023-08-24T07:03:51;22.20;95.10
9984;DHT22;16737;50.932;6.780;2023-08-24T07:06:18;22.30;95.20
9984;DHT22;16737;50.932;6.780;2023-08-24T07:08:46;22.40;95.30
9984;DHT22;16737;50.932;6.780;2023-08-24T07:11:15;22.50;95.50
9984;DHT22;16737;50.932;6.780;2023-08-24T07:13:42;22.60;95.50
9984;DHT22;16737;50.932;6.780;2023-08-24T07:16:10;22.70;95.50
9984;DHT22;16737;50.932;6.780;2023-08-24T07:18:37;22.70;95.50
9984;DHT22;16737;50.932;6.780;2023-08-24T07:21:12;22.90;95.60
9984;DHT22;16737;50.932;6.780;2023-08-24T07:23:40;23.00;96.00
9984;DHT22;16737;50.932;6.780;2023-08-24T07:26:08;23.10;95.60
9984;DHT22;16737;50.932;6.780;2023-08-24T07:28:35;23.10;95.60
9984;DHT22;16737;50.932;6.780;2023-08-24T07:31:07;23.30;95.50
9984;DHT22;16737;50.932;6.780;2023-08-24T07:33:36;23.40;95.80
9984;DHT22;16737;50.932;6.780;2023-08-24T07:36:04;23.50;95.50
9984;DHT22;16737;50.932;6.780;2023-08-24T07:38:32;23.60;95.80
9984;DHT22;16737;50.932;6.780;2023-08-24T07:40:59;23.70;95.40
9984;DHT22;16737;50.932;6.780;2023-08-24T07:43:27;23.80;95.40
9984;DHT22;16737;50.932;6.780;2023-08-24T07:45:54;23.90;95.60
9984;DHT22;16737;50.932;6.780;2023-08-24T07:48:21;24.00;95.40
9984;DHT22;16737;50.932;6.780;2023-08-24T07:50:48;24.10;95.30
9984;DHT22;16737;50.932;6.780;2023-08-24T07:53:15;24.20;95.30
9984;DHT22;16737;50.932;6.780;2023-08-24T07:55:42;24.30;95.10
9984;DHT22;16737;50.932;6.780;2023-08-24T07:58:09;24.40;95.10
9984;DHT22;16737;50.932;6.780;2023-08-24T08:00:37;24.50;95.10
9984;DHT22;16737;50.932;6.780;2023-08-24T08:03:04;24.60;95.00
9984;DHT22;16737;50.932;6.780;2023-08-24T08:05:31;24.70;95.00
9984;DHT22;16737;50.932;6.780;2023-08-24T08:07:58;24.80;95.00
9984;DHT22;16737;50.932;6.780;2023-08-24T08:10:25;24.90;95.00
9984;DHT22;16737;50.932;6.780;2023-08-24T08:12:52;25.00;95.00
9984;DHT22;16737;50.932;6.780;2023-08-24T08:15:19;25.10;94.90
9984;DHT22;16737;50.932;6.780;2023-08-24T08:17:48;25.20;94.70
9984;DHT22;16737;50.932;6.780;2023-08-24T08:20:15;25.30;94.60
9984;DHT22;16737;50.932;6.780;2023-08-24T08:22:41;25.40;94.60
9984;DHT22;16737;50.932;6.780;2023-08-24T08:25:08;25.50;94.50
9984;DHT22;16737;50.932;6.780;2023-08-24T08:27:37;25.60;94.40
9984;DHT22;16737;50.932;6.780;2023-08-24T08:30:06;25.70;94.40
9984;DHT22;16737;50.932;6.780;2023-08-24T08:32:33;25.80;94.30
9984;DHT22;16737;50.932;6.780;2023-08-24T08:35:02;25.90;94.30
9984;DHT22;16737;50.932;6.780;2023-08-24T08:37:30;25.90;94.40
9984;DHT22;16737;50.932;6.780;2023-08-24T08:39:57;26.10;94.50
9984;DHT22;16737;50.932;6.780;2023-08-24T08:42:24;26.20;94.40
9984;DHT22;16737;50.932;6.780;2023-08-24T08:44:51;26.30;94.30
9984;DHT22;16737;50.932;6.780;2023-08-24T08:47:21;26.30;94.30
9984;DHT22;16737;50.932;6.780;2023-08-24T08:49:48;26.50;94.30
9984;DHT22;16737;50.932;6.780;2023-08-24T08:52:17;26.60;94.10
9984;DHT22;16737;50.932;6.780;2023-08-24T08:54:44;26.70;94.10
9984;DHT22;16737;50.932;6.780;2023-08-24T08:57:11;26.80;94.10
9984;DHT22;16737;50.932;6.780;2023-08-24T08:59:39;26.90;93.90
9984;DHT22;16737;50.932;6.780;2023-08-24T09:02:13;27.00;93.60
9984;DHT22;16737;50.932;6.780;2023-08-24T09:04:45;27.20;93.40
9984;DHT22;16737;50.932;6.780;2023-08-24T09:07:14;27.30;93.20
9984;DHT22;16737;50.932;6.780;2023-08-24T09:09:43;27.40;93.10
9984;DHT22;16737;50.932;6.780;2023-08-24T09:12:10;27.60;92.80
9984;DHT22;16737;50.932;6.780;2023-08-24T09:14:37;27.70;92.70
9984;DHT22;16737;50.932;6.780;2023-08-24T09:17:05;27.80;92.30
9984;DHT22;16737;50.932;6.780;2023-08-24T09:19:33;27.90;92.10
9984;DHT22;16737;50.932;6.780;2023-08-24T09:22:02;28.00;92.00
9984;DHT22;16737;50.932;6.780;2023-08-24T09:24:30;28.20;92.00
9984;DHT22;16737;50.932;6.780;2023-08-24T09:26:59;28.20;91.90
9984;DHT22;16737;50.932;6.780;2023-08-24T09:29:26;28.30;91.80
9984;DHT22;16737;50.932;6.780;2023-08-24T09:31:54;28.50;91.70
9984;DHT22;16737;50.932;6.780;2023-08-24T09:34:22;28.60;91.60
9984;DHT22;16737;50.932;6.780;2023-08-24T09:36:52;28.70;91.30
9984;DHT22;16737;50.932;6.780;2023-08-24T09:39:20;28.80;91.00
9984;DHT22;16737;50.932;6.780;2023-08-24T09:41:49;28.90;90.90
9984;DHT22;16737;50.932;6.780;2023-08-24T09:44:18;29.00;90.70
9984;DHT22;16737;50.932;6.780;2023-08-24T09:46:46;29.00;90.40
9984;DHT22;16737;50.932;6.780;2023-08-24T09:49:13;29.10;90.30
9984;DHT22;16737;50.932;6.780;2023-08-24T09:51:40;29.20;90.40
9984;DHT22;16737;50.932;6.780;2023-08-24T09:54:10;29.20;90.30
9984;DHT22;16737;50.932;6.780;2023-08-24T09:56:39;29.30;90.00
9984;DHT22;16737;50.932;6.780;2023-08-24T09:59:11;29.40;89.70
9984;DHT22;16737;50.932;6.780;2023-08-24T10:01:45;29.40;89.10
9984;DHT22;16737;50.932;6.780;2023-08-24T10:04:14;29.50;87.30
9984;DHT22;16737;50.932;6.780;2023-08-24T10:06:48;29.50;88.40
9984;DHT22;16737;50.932;6.780;2023-08-24T10:09:25;29.50;87.00
9984;DHT22;16737;50.932;6.780;2023-08-24T10:11:58;29.50;87.90
9984;DHT22;16737;50.932;6.780;2023-08-24T10:14:31;29.50;86.30
9984;DHT22;16737;50.932;6.780;2023-08-24T10:17:02;29.60;87.20
9984;DHT22;16737;50.932;6.780;2023-08-24T10:19:30;29.60;86.40
9984;DHT22;16737;50.932;6.780;2023-08-24T10:21:59;29.60;86.60
9984;DHT22;16737;50.932;6.780;2023-08-24T10:24:31;29.60;85.60
9984;DHT22;16737;50.932;6.780;2023-08-24T10:27:00;29.60;85.90
9984;DHT22;16737;50.932;6.780;2023-08-24T10:29:30;29.70;86.50
9984;DHT22;16737;50.932;6.780;2023-08-24T10:31:57;29.60;85.80
9984;DHT22;16737;50.932;6.780;2023-08-24T10:34:26;29.70;86.20
9984;DHT22;16737;50.932;6.780;2023-08-24T10:36:53;29.70;85.90
9984;DHT22;16737;50.932;6.780;2023-08-24T10:39:27;29.70;85.70
9984;DHT22;16737;50.932;6.780;2023-08-24T10:41:54;29.70;85.00
9984;DHT22;16737;50.932;6.780;2023-08-24T10:44:24;29.70;86.10
9984;DHT22;16737;50.932;6.780;2023-08-24T10:47:16;29.70;85.60
9984;DHT22;16737;50.932;6.780;2023-08-24T10:49:58;29.80;84.60
9984;DHT22;16737;50.932;6.780;2023-08-24T10:52:31;29.80;84.40
9984;DHT22;16737;50.932;6.780;2023-08-24T10:55:01;29.80;84.90
9984;DHT22;16737;50.932;6.780;2023-08-24T10:57:35;29.80;84.90
9984;DHT22;16737;50.932;6.780;2023-08-24T11:00:06;29.80;84.60
9984;DHT22;16737;50.932;6.780;2023-08-24T11:02:43;29.90;84.60
9984;DHT22;16737;50.932;6.780;2023-08-24T11:05:20;29.90;84.60
9984;DHT22;16737;50.932;6.780;2023-08-24T11:07:54;29.90;84.10
9984;DHT22;16737;50.932;6.780;2023-08-24T11:10:23;29.90;84.10
9984;DHT22;16737;50.932;6.780;2023-08-24T11:13:11;30.00;84.20
9984;DHT22;16737;50.932;6.780;2023-08-24T11:15:41;30.00;84.00
9984;DHT22;16737;50.932;6.780;2023-08-24T11:18:19;29.90;84.70
9984;DHT22;16737;50.932;6.780;2023-08-24T11:20:51;30.00;83.60
9984;DHT22;16737;50.932;6.780;2023-08-24T11:23:20;30.00;83.60
9984;DHT22;16737;50.932;6.780;2023-08-24T11:25:51;29.90;83.70
9984;DHT22;16737;50.932;6.780;2023-08-24T11:28:22;30.00;83.70
9984;DHT22;16737;50.932;6.780;2023-08-24T11:30:49;30.00;83.80
9984;DHT22;16737;50.932;6.780;2023-08-24T11:33:26;29.90;83.70
9984;DHT22;16737;50.932;6.780;2023-08-24T11:35:55;30.00;83.70
9984;DHT22;16737;50.932;6.780;2023-08-24T11:38:22;30.00;82.90
9984;DHT22;16737;50.932;6.780;2023-08-24T11:40:50;30.00;83.00
9984;DHT22;16737;50.932;6.780;2023-08-24T11:43:24;29.90;83.00
9984;DHT22;16737;50.932;6.780;2023-08-24T11:45:52;29.90;82.40
9984;DHT22;16737;50.932;6.780;2023-08-24T11:48:24;29.90;82.40
9984;DHT22;16737;50.932;6.780;2023-08-24T11:50:51;29.90;82.10
9984;DHT22;16737;50.932;6.780;2023-08-24T11:53:22;29.90;82.70
9984;DHT22;16737;50.932;6.780;2023-08-24T11:55:52;29.90;82.30
9984;DHT22;16737;50.932;6.780;2023-08-24T11:58:19;29.80;83.40
9984;DHT22;16737;50.932;6.780;2023-08-24T12:00:47;29.80;83.90
9984;DHT22;16737;50.932;6.780;2023-08-24T12:03:14;29.80;83.60
9984;DHT22;16737;50.932;6.780;2023-08-24T12:05:41;29.80;83.90
9984;DHT22;16737;50.932;6.780;2023-08-24T12:08:11;29.80;83.30
9984;DHT22;16737;50.932;6.780;2023-08-24T12:10:43;29.80;83.30
9984;DHT22;16737;50.932;6.780;2023-08-24T12:13:12;29.70;83.80
9984;DHT22;16737;50.932;6.780;2023-08-24T12:15:40;29.70;84.40
9984;DHT22;16737;50.932;6.780;2023-08-24T12:18:09;29.70;84.70
9984;DHT22;16737;50.932;6.780;2023-08-24T12:20:37;29.70;84.80
9984;DHT22;16737;50.932;6.780;2023-08-24T12:23:04;29.60;85.90
9984;DHT22;16737;50.932;6.780;2023-08-24T12:25:36;29.60;85.30
9984;DHT22;16737;50.932;6.780;2023-08-24T12:28:12;29.60;85.50
9984;DHT22;16737;50.932;6.780;2023-08-24T12:30:44;29.50;85.90
9984;DHT22;16737;50.932;6.780;2023-08-24T12:33:26;29.40;86.30
9984;DHT22;16737;50.932;6.780;2023-08-24T12:35:54;29.30;86.90
9984;DHT22;16737;50.932;6.780;2023-08-24T12:38:24;29.20;86.50
9984;DHT22;16737;50.932;6.780;2023-08-24T12:40:53;29.10;86.90
9984;DHT22;16737;50.932;6.780;2023-08-24T12:43:21;29.00;87.50
9984;DHT22;16737;50.932;6.780;2023-08-24T12:45:48;28.90;88.50
9984;DHT22;16737;50.932;6.780;2023-08-24T12:48:15;28.70;87.80
9984;DHT22;16737;50.932;6.780;2023-08-24T12:50:42;28.60;88.20
9984;DHT22;16737;50.932;6.780;2023-08-24T12:53:09;28.50;88.70
9984;DHT22;16737;50.932;6.780;2023-08-24T12:55:39;28.40;89.10
9984;DHT22;16737;50.932;6.780;2023-08-24T12:58:06;28.30;89.90
9984;DHT22;16737;50.932;6.780;2023-08-24T13:00:34;28.20;89.80
9984;DHT22;16737;50.932;6.780;2023-08-24T13:03:03;28.10;90.10
9984;DHT22;16737;50.932;6.780;2023-08-24T13:05:30;28.00;90.20
9984;DHT22;16737;50.932;6.780;2023-08-24T13:07:57;27.90;90.20
9984;DHT22;16737;50.932;6.780;2023-08-24T13:10:24;27.80;90.40
9984;DHT22;16737;50.932;6.780;2023-08-24T13:12:51;27.70;90.50
9984;DHT22;16737;50.932;6.780;2023-08-24T13:15:18;27.70;90.60
9984;DHT22;16737;50.932;6.780;2023-08-24T13:17:50;27.60;90.70
9984;DHT22;16737;50.932;6.780;2023-08-24T13:20:17;27.50;91.10
9984;DHT22;16737;50.932;6.780;2023-08-24T13:22:45;27.40;90.80
9984;DHT22;16737;50.932;6.780;2023-08-24T13:25:12;27.30;90.80
9984;DHT22;16737;50.932;6.780;2023-08-24T13:27:39;27.20;91.00
9984;DHT22;16737;50.932;6.780;2023-08-24T13:30:07;27.10;90.80
9984;DHT22;16737;50.932;6.780;2023-08-24T13:32:34;27.10;91.00
9984;DHT22;16737;50.932;6.780;2023-08-24T13:35:03;27.00;91.00
9984;DHT22;16737;50.932;6.780;2023-08-24T13:37:30;27.00;90.90
9984;DHT22;16737;50.932;6.780;2023-08-24T13:39:58;27.00;90.80
9984;DHT22;16737;50.932;6.780;2023-08-24T13:42:25;26.90;90.80
9984;DHT22;16737;50.932;6.780;2023-08-24T13:44:52;26.90;90.90
9984;DHT22;16737;50.932;6.780;2023-08-24T13:47:19;26.90;90.80
9984;DHT22;16737;50.932;6.780;2023-08-24T13:49:47;26.80;90.80
9984;DHT22;16737;50.932;6.780;2023-08-24T13:52:15;26.80;90.90
9984;DHT22;16737;50.932;6.780;2023-08-24T13:54:44;26.70;91.00
9984;DHT22;16737;50.932;6.780;2023-08-24T13:57:11;26.70;90.90
9984;DHT22;16737;50.932;6.780;2023-08-24T13:59:38;26.70;91.00
9984;DHT22;16737;50.932;6.780;2023-08-24T14:02:06;26.70;91.00
9984;DHT22;16737;50.932;6.780;2023-08-24T14:04:33;26.70;91.10
9984;DHT22;16737;50.932;6.780;2023-08-24T14:07:00;26.60;91.20
9984;DHT22;16737;50.932;6.780;2023-08-24T14:09:28;26.60;91.10
9984;DHT22;16737;50.932;6.780;2023-08-24T14:11:56;26.60;91.30
9984;DHT22;16737;50.932;6.780;2023-08-24T14:14:23;26.60;91.40
9984;DHT22;16737;50.932;6.780;2023-08-24T14:16:54;26.60;91.30
9984;DHT22;16737;50.932;6.780;2023-08-24T14:19:21;26.50;91.60
9984;DHT22;16737;50.932;6.780;2023-08-24T14:21:48;26.50;91.40
9984;DHT22;16737;50.932;6.780;2023-08-24T14:24:15;26.40;91.50
9984;DHT22;16737;50.932;6.780;2023-08-24T14:26:44;26.40;91.60
9984;DHT22;16737;50.932;6.780;2023-08-24T14:29:12;26.40;91.70
9984;DHT22;16737;50.932;6.780;2023-08-24T14:31:39;26.30;91.70
9984;DHT22;16737;50.932;6.780;2023-08-24T14:34:06;26.30;91.80
9984;DHT22;16737;50.932;6.780;2023-08-24T14:36:33;26.20;91.90
9984;DHT22;16737;50.932;6.780;2023-08-24T14:39:00;26.10;92.00
9984;DHT22;16737;50.932;6.780;2023-08-24T14:41:27;26.10;92.00
9984;DHT22;16737;50.932;6.780;2023-08-24T14:43:56;26.00;92.10
9984;DHT22;16737;50.932;6.780;2023-08-24T14:46:22;25.90;92.20
9984;DHT22;16737;50.932;6.780;2023-08-24T14:48:49;25.90;92.20
9984;DHT22;16737;50.932;6.780;2023-08-24T14:51:16;25.90;92.40
9984;DHT22;16737;50.932;6.780;2023-08-24T14:53:43;25.80;92.40
9984;DHT22;16737;50.932;6.780;2023-08-24T14:56:10;25.70;92.50
9984;DHT22;16737;50.932;6.780;2023-08-24T14:58:37;25.60;92.50
9984;DHT22;16737;50.932;6.780;2023-08-24T15:01:05;25.60;92.50
9984;DHT22;16737;50.932;6.780;2023-08-24T15:03:32;25.50;92.60
9984;DHT22;16737;50.932;6.780;2023-08-24T15:06:00;25.40;92.50
9984;DHT22;16737;50.932;6.780;2023-08-24T15:08:29;25.40;92.60
9984;DHT22;16737;50.932;6.780;2023-08-24T15:10:58;25.30;92.70
9984;DHT22;16737;50.932;6.780;2023-08-24T15:13:27;25.20;92.80
9984;DHT22;16737;50.932;6.780;2023-08-24T15:15:56;25.10;92.80
9984;DHT22;16737;50.932;6.780;2023-08-24T15:18:26;25.00;93.00
9984;DHT22;16737;50.932;6.780;2023-08-24T15:20:53;25.00;93.20
9984;DHT22;16737;50.932;6.780;2023-08-24T15:23:22;24.90;93.20
9984;DHT22;16737;50.932;6.780;2023-08-24T15:25:50;24.90;93.40
9984;DHT22;16737;50.932;6.780;2023-08-24T15:28:18;24.80;93.40
9984;DHT22;16737;50.932;6.780;2023-08-24T15:30:45;24.70;93.50
9984;DHT22;16737;50.932;6.780;2023-08-24T15:33:12;24.70;93.60
9984;DHT22;16737;50.932;6.780;2023-08-24T15:35:41;24.60;93.70
9984;DHT22;16737;50.932;6.780;2023-08-24T15:38:08;24.50;93.80
9984;DHT22;16737;50.932;6.780;2023-08-24T15:40:36;24.50;93.80
9984;DHT22;16737;50.932;6.780;2023-08-24T15:43:05;24.40;93.80
9984;DHT22;16737;50.932;6.780;2023-08-24T15:45:33;24.40;93.90
9984;DHT22;16737;50.932;6.780;2023-08-24T15:48:00;24.30;93.90
9984;DHT22;16737;50.932;6.780;2023-08-24T15:50:28;24.30;94.00
9984;DHT22;16737;50.932;6.780;2023-08-24T15:52:57;24.20;94.10